Time;durP1;ratioP1;P1;durP2;ratioP2;P2;SDS_P1;SDS_P2;PMS_P1;PMS_P2;Temp;Humidity;BMP_temperature;BMP_pressure;BME280_temperature;BME280_humidity;BME280_pressure;Samples;Min_cycle;Max_cycle;Signal;HPM_P1;HPM_P2
2023/04/17 00:00:18;;;;;;;24.37;21.07;;;9.40;99.90;;;;;;4938696;29;20254;-56
2023/04/17 00:02:46;;;;;;;21.40;18.33;;;9.30;99.90;;;;;;4938170;29;20234;-57
2023/04/17 00:05:15;;;;;;;26.93;21.57;;;9.40;99.90;;;;;;4933994;29;20251;-56
2023/04/17 00:07:45;;;;;;;22.53;19.00;;;9.30;99.90;;;;;;4919863;29;20239;-56
2023/04/17 00:10:13;;;;;;;26.60;20.20;;;9.30;99.90;;;;;;4920401;29;20236;-56
2023/04/17 00:12:41;;;;;;;22.67;19.43;;;9.40;99.90;;;;;;4919694;29;20235;-56
2023/04/17 00:15:11;;;;;;;25.83;21.27;;;9.50;99.90;;;;;;4919889;29;20225;-56
2023/04/17 00:17:39;;;;;;;19.93;17.73;;;9.60;99.90;;;;;;4926264;29;20221;-55
2023/04/17 00:20:09;;;;;;;26.27;20.63;;;9.60;99.90;;;;;;4927254;29;20652;-56
2023/04/17 00:22:37;;;;;;;24.60;20.53;;;9.40;99.90;;;;;;4921998;29;20240;-57
2023/04/17 00:25:09;;;;;;;21.87;19.47;;;9.30;99.90;;;;;;4927471;29;20714;-57
2023/04/17 00:27:37;;;;;;;24.20;20.53;;;9.20;99.90;;;;;;4919786;29;20642;-56
2023/04/17 00:30:06;;;;;;;23.00;20.53;;;9.30;99.90;;;;;;4918349;29;20722;-57
2023/04/17 00:32:36;;;;;;;21.93;18.30;;;9.30;99.90;;;;;;4940603;29;20731;-56
2023/04/17 00:35:06;;;;;;;24.20;19.50;;;9.50;99.90;;;;;;4927303;29;20229;-57
2023/04/17 00:37:35;;;;;;;23.20;20.07;;;9.60;99.90;;;;;;4919334;29;20228;-57
2023/04/17 00:40:03;;;;;;;25.07;19.93;;;9.50;99.90;;;;;;4921881;29;20239;-56
2023/04/17 00:42:31;;;;;;;24.13;21.50;;;9.50;99.90;;;;;;4919601;29;20586;-57
2023/04/17 00:44:59;;;;;;;25.27;21.20;;;9.40;99.90;;;;;;4919381;29;20228;-57
2023/04/17 00:47:27;;;;;;;24.07;20.20;;;9.30;99.90;;;;;;4940104;28;20237;-56
2023/04/17 00:49:58;;;;;;;25.13;19.60;;;9.20;99.90;;;;;;4927036;29;20225;-57
2023/04/17 00:52:29;;;;;;;27.90;21.67;;;9.20;99.90;;;;;;4934181;29;20225;-56
2023/04/17 00:54:58;;;;;;;25.47;20.00;;;9.20;99.90;;;;;;4935451;29;20359;-57
2023/04/17 00:57:28;;;;;;;22.73;20.33;;;9.30;99.90;;;;;;4918885;29;20309;-57
2023/04/17 00:59:56;;;;;;;22.83;18.90;;;9.40;99.90;;;;;;4919107;29;20625;-56
2023/04/17 01:02:25;;;;;;;24.23;19.20;;;9.50;99.90;;;;;;4931820;29;20262;-57
2023/04/17 01:04:53;;;;;;;21.63;18.87;;;9.60;99.90;;;;;;4929584;29;20283;-56
2023/04/17 01:07:23;;;;;;;23.80;19.50;;;9.60;99.90;;;;;;4936640;29;20236;-57
2023/04/17 01:09:51;;;;;;;21.17;18.90;;;9.50;99.90;;;;;;4937594;29;20224;-56
2023/04/17 01:12:21;;;;;;;27.20;22.83;;;9.60;99.90;;;;;;4937885;29;20689;-57
2023/04/17 01:14:50;;;;;;;25.07;21.33;;;9.60;99.90;;;;;;4937569;29;20561;-55
2023/04/17 01:17:19;;;;;;;23.50;18.93;;;9.30;99.90;;;;;;4932394;29;20242;-57
2023/04/17 01:19:47;;;;;;;22.73;19.10;;;9.40;99.90;;;;;;4925348;29;20236;-57
2023/04/17 01:22:16;;;;;;;25.90;20.67;;;9.40;99.90;;;;;;4918767;29;20238;-57
2023/04/17 01:24:45;;;;;;;25.87;21.80;;;9.40;99.90;;;;;;4950883;29;20265;-56
2023/04/17 01:27:14;;;;;;;25.83;21.67;;;9.50;99.90;;;;;;4917389;29;20236;-56
2023/04/17 01:29:44;;;;;;;27.27;23.07;;;9.60;99.90;;;;;;4917277;29;20264;-57
2023/04/17 01:32:12;;;;;;;25.50;20.03;;;9.30;99.90;;;;;;4922146;29;20627;-57
2023/04/17 01:34:41;;;;;;;26.37;23.03;;;9.30;99.90;;;;;;4935582;29;20235;-56
2023/04/17 01:37:09;;;;;;;26.13;22.50;;;9.10;99.90;;;;;;4937524;29;20588;-56
2023/04/17 01:39:38;;;;;;;26.47;21.53;;;9.20;99.90;;;;;;4937432;29;20225;-57
2023/04/17 01:42:07;;;;;;;31.03;22.87;;;9.10;99.90;;;;;;4936144;29;20719;-57
2023/04/17 01:44:36;;;;;;;24.20;20.23;;;9.30;99.90;;;;;;4935667;29;20236;-56
2023/04/17 01:47:04;;;;;;;25.03;20.07;;;9.30;99.90;;;;;;4930973;29;20229;-56
2023/04/17 01:49:32;;;;;;;28.93;22.23;;;9.40;99.90;;;;;;4927845;29;20240;-57
2023/04/17 01:52:01;;;;;;;23.40;20.20;;;9.50;99.90;;;;;;4936020;29;20232;-56
2023/04/17 01:54:29;;;;;;;23.47;19.97;;;9.50;99.90;;;;;;4936800;29;20246;-57
2023/04/17 01:56:57;;;;;;;24.57;19.70;;;9.50;99.90;;;;;;4918827;29;20233;-56
2023/04/17 01:59:27;;;;;;;23.67;19.77;;;9.50;99.90;;;;;;4916756;29;20235;-57
2023/04/17 02:01:55;;;;;;;21.07;18.73;;;9.50;99.90;;;;;;4917981;29;20240;-57
2023/04/17 02:04:24;;;;;;;26.13;20.33;;;9.60;99.90;;;;;;4936308;29;20331;-57
2023/04/17 02:06:53;;;;;;;23.50;19.43;;;9.70;99.90;;;;;;4936890;29;20713;-57
2023/04/17 02:09:21;;;;;;;24.33;19.60;;;9.70;99.90;;;;;;4951640;29;20573;-57
2023/04/17 02:11:49;;;;;;;22.17;19.70;;;9.60;99.90;;;;;;4951457;29;20232;-56
2023/04/17 02:14:19;;;;;;;23.30;20.10;;;9.60;99.90;;;;;;4936880;29;20237;-56
2023/04/17 02:16:48;;;;;;;25.83;20.90;;;9.70;99.90;;;;;;4930242;29;20225;-56
2023/04/17 02:19:17;;;;;;;28.90;21.97;;;9.60;99.90;;;;;;4931411;29;20231;-55
2023/04/17 02:21:45;;;;;;;23.30;19.87;;;9.50;99.90;;;;;;4933071;29;20239;-56
2023/04/17 02:24:13;;;;;;;23.73;20.10;;;9.50;99.90;;;;;;4930642;29;20233;-57
2023/04/17 02:26:41;;;;;;;21.60;19.13;;;9.50;99.90;;;;;;4933535;29;20226;-57
2023/04/17 02:29:09;;;;;;;27.90;23.10;;;9.50;99.90;;;;;;4936626;29;20245;-57
2023/04/17 02:31:40;;;;;;;25.80;20.97;;;9.50;99.90;;;;;;4935937;29;20313;-56
2023/04/17 02:34:12;;;;;;;22.27;19.47;;;9.50;99.90;;;;;;4928098;29;20229;-56
2023/04/17 02:36:41;;;;;;;21.70;18.93;;;9.40;99.90;;;;;;4937751;29;20564;-56
2023/04/17 02:39:09;;;;;;;24.57;20.93;;;9.50;99.90;;;;;;4932086;29;20784;-56
2023/04/17 02:41:47;;;;;;;29.30;24.40;;;9.50;99.90;;;;;;5087030;27;20644;-56
2023/04/17 02:44:15;;;;;;;27.07;22.67;;;9.40;99.90;;;;;;5087907;28;20659;-55
2023/04/17 02:46:43;;;;;;;23.97;20.93;;;9.10;99.90;;;;;;5096962;28;20583;-56
2023/04/17 02:49:13;;;;;;;24.97;20.40;;;9.20;99.90;;;;;;5088771;28;20695;-56
2023/04/17 02:51:41;;;;;;;24.87;21.33;;;9.30;99.90;;;;;;5088558;28;20629;-55
2023/04/17 02:54:09;;;;;;;28.97;23.73;;;9.40;99.90;;;;;;5089814;28;20215;-55
2023/04/17 02:56:37;;;;;;;26.73;21.43;;;9.30;99.90;;;;;;5089723;28;20230;-55
2023/04/17 02:59:07;;;;;;;26.80;23.40;;;9.10;99.90;;;;;;5089931;28;20257;-56
2023/04/17 03:01:37;;;;;;;30.83;24.77;;;8.90;99.90;;;;;;5065872;28;20240;-55
2023/04/17 03:04:05;;;;;;;30.40;23.63;;;8.80;99.90;;;;;;5056246;28;20275;-57
2023/04/17 03:06:34;;;;;;;23.27;20.63;;;8.70;99.90;;;;;;5065606;28;20259;-55
2023/04/17 03:09:03;;;;;;;32.83;25.67;;;8.80;99.90;;;;;;5068249;28;20233;-54
2023/04/17 03:11:32;;;;;;;30.00;21.53;;;8.70;99.90;;;;;;5058991;28;20232;-55
2023/04/17 03:14:00;;;;;;;27.30;22.40;;;8.70;99.90;;;;;;5049455;28;20225;-55
2023/04/17 03:16:29;;;;;;;28.00;23.17;;;9.00;99.90;;;;;;5054449;28;20219;-56
2023/04/17 03:19:02;;;;;;;28.07;22.63;;;9.10;99.90;;;;;;5048227;28;20310;-55
2023/04/17 03:21:30;;;;;;;30.83;24.67;;;9.20;99.90;;;;;;5047840;28;20259;-55
2023/04/17 03:23:58;;;;;;;30.47;26.17;;;9.20;99.90;;;;;;5054262;28;20230;-55
2023/04/17 03:26:27;;;;;;;28.83;24.30;;;8.90;99.90;;;;;;5062690;28;20252;-55
2023/04/17 03:28:55;;;;;;;32.73;25.97;;;8.70;99.90;;;;;;5067771;28;20255;-55
2023/04/17 03:31:24;;;;;;;29.97;25.30;;;8.60;99.90;;;;;;5067197;28;20237;-56
2023/04/17 03:33:54;;;;;;;27.83;23.17;;;8.60;99.90;;;;;;5046835;28;20221;-55
2023/04/17 03:36:23;;;;;;;29.43;24.83;;;8.60;99.90;;;;;;5047666;28;20224;-55
2023/04/17 03:38:51;;;;;;;26.67;23.77;;;8.60;99.90;;;;;;5049019;28;20220;-56
2023/04/17 03:41:19;;;;;;;26.60;22.53;;;8.50;99.90;;;;;;5047517;28;20591;-56
2023/04/17 03:43:48;;;;;;;25.23;21.50;;;8.60;99.90;;;;;;5047531;28;20220;-55
2023/04/17 03:46:16;;;;;;;27.90;22.47;;;8.70;99.90;;;;;;5051103;28;20600;-56
2023/04/17 03:48:44;;;;;;;30.07;24.93;;;8.90;99.90;;;;;;5051058;28;20925;-55
2023/04/17 03:51:13;;;;;;;31.13;24.97;;;8.70;99.90;;;;;;5044754;28;20234;-55
2023/04/17 03:53:41;;;;;;;29.27;24.87;;;8.50;99.90;;;;;;5039989;28;20236;-56
2023/04/17 03:56:12;;;;;;;26.73;21.67;;;8.40;99.90;;;;;;5047769;28;20235;-55
2023/04/17 03:58:43;;;;;;;28.20;24.63;;;8.50;99.90;;;;;;5053909;28;20219;-55
2023/04/17 04:01:14;;;;;;;28.83;24.33;;;8.80;99.90;;;;;;5053544;28;20235;-55
2023/04/17 04:04:00;;;;;;;28.60;25.00;;;8.60;99.90;;;;;;5053714;28;20227;-55
2023/04/17 04:06:30;;;;;;;30.23;26.00;;;8.70;99.90;;;;;;5053604;28;20224;-56
2023/04/17 04:08:59;;;;;;;25.40;21.83;;;8.70;99.90;;;;;;5053928;28;20228;-56
2023/04/17 04:11:28;;;;;;;26.40;21.97;;;8.80;99.90;;;;;;5053603;28;20666;-56
2023/04/17 04:13:56;;;;;;;31.97;27.33;;;8.80;99.90;;;;;;5055130;28;20750;-56
2023/04/17 04:16:24;;;;;;;31.57;25.27;;;8.80;99.90;;;;;;5053485;28;20236;-56
2023/04/17 04:18:59;;;;;;;29.87;24.70;;;8.60;99.90;;;;;;5053556;28;20658;-55
2023/04/17 04:21:29;;;;;;;26.73;22.77;;;8.60;99.90;;;;;;5053328;28;20223;-56
2023/04/17 04:23:58;;;;;;;27.63;23.00;;;8.80;99.90;;;;;;5051049;28;20705;-55
2023/04/17 04:26:27;;;;;;;27.23;21.90;;;8.90;99.90;;;;;;5053122;28;20250;-55
2023/04/17 04:28:56;;;;;;;30.80;24.83;;;8.90;99.90;;;;;;5053539;28;20286;-56
2023/04/17 04:31:38;;;;;;;30.93;23.40;;;9.00;99.90;;;;;;5052686;28;20227;-56
2023/04/17 04:34:07;;;;;;;41.27;27.97;;;9.00;99.90;;;;;;5053212;28;20224;-55
2023/04/17 04:36:40;;;;;;;37.60;28.63;;;9.20;99.90;;;;;;5053067;28;20692;-55
2023/04/17 04:39:19;;;;;;;40.87;31.87;;;9.20;99.90;;;;;;5053235;28;20242;-56
2023/04/17 04:41:49;;;;;;;36.93;27.70;;;9.20;99.90;;;;;;5052729;28;20231;-56
2023/04/17 04:44:20;;;;;;;33.63;25.30;;;9.10;99.90;;;;;;5053107;28;20691;-56
2023/04/17 04:46:51;;;;;;;33.93;26.97;;;9.20;99.90;;;;;;5052642;28;20228;-56
2023/04/17 04:49:20;;;;;;;38.50;28.20;;;9.00;99.90;;;;;;5053459;28;20235;-56
2023/04/17 04:51:48;;;;;;;36.90;28.40;;;9.00;99.90;;;;;;5050650;28;20699;-57
2023/04/17 04:54:18;;;;;;;37.33;28.27;;;9.20;99.90;;;;;;5052475;28;20303;-55
2023/04/17 04:56:51;;;;;;;36.83;29.40;;;9.30;99.90;;;;;;5049301;28;20259;-56
2023/04/17 04:59:20;;;;;;;38.40;30.17;;;9.30;99.90;;;;;;5047112;28;20232;-55
2023/04/17 05:01:57;;;;;;;39.90;30.73;;;9.30;99.90;;;;;;5052309;28;20230;-56
2023/04/17 05:04:25;;;;;;;45.83;32.63;;;9.40;99.90;;;;;;5051543;28;20715;-56
2023/04/17 05:06:58;;;;;;;40.37;33.37;;;9.50;99.90;;;;;;5052091;28;20292;-56
2023/04/17 05:09:28;;;;;;;37.87;30.17;;;9.30;99.90;;;;;;5052480;28;20228;-55
2023/04/17 05:11:58;;;;;;;34.40;29.40;;;9.10;99.90;;;;;;5052558;28;20233;-56
2023/04/17 05:14:27;;;;;;;38.83;29.27;;;8.80;99.90;;;;;;5052355;28;20226;-55
2023/04/17 05:16:55;;;;;;;36.53;31.13;;;9.00;99.90;;;;;;5052475;28;20266;-56
2023/04/17 05:19:23;;;;;;;34.37;28.57;;;9.00;99.90;;;;;;5050744;28;20591;-56
2023/04/17 05:22:00;;;;;;;34.50;27.73;;;8.80;99.90;;;;;;5041003;28;20695;-56
2023/04/17 05:24:36;;;;;;;35.53;27.83;;;8.70;99.90;;;;;;5041487;28;20325;-56
2023/04/17 05:27:06;;;;;;;34.10;27.53;;;8.70;99.90;;;;;;5032313;28;20221;-56
2023/04/17 05:29:34;;;;;;;37.33;30.30;;;8.90;99.90;;;;;;5050890;28;20262;-55
2023/04/17 05:32:04;;;;;;;32.00;28.17;;;8.90;99.90;;;;;;5051465;28;20231;-55
2023/04/17 05:34:51;;;;;;;35.93;28.13;;;9.00;99.90;;;;;;5049848;28;20255;-56
2023/04/17 05:37:23;;;;;;;33.93;28.90;;;8.90;99.90;;;;;;5051882;28;20232;-56
2023/04/17 05:39:52;;;;;;;33.80;28.57;;;8.90;99.90;;;;;;5052835;28;20327;-55
2023/04/17 05:42:21;;;;;;;33.03;28.23;;;8.80;99.90;;;;;;5049090;28;20782;-55
2023/04/17 05:44:49;;;;;;;36.13;29.43;;;8.80;99.90;;;;;;5053235;28;20216;-56
2023/04/17 05:47:18;;;;;;;36.37;29.67;;;8.90;99.90;;;;;;5050898;28;20685;-56
2023/04/17 05:49:47;;;;;;;37.63;29.77;;;9.00;99.90;;;;;;5052416;28;20683;-56
2023/04/17 05:52:16;;;;;;;33.53;28.10;;;8.90;99.90;;;;;;5047880;28;20231;-56
2023/04/17 05:54:44;;;;;;;35.17;28.13;;;9.00;99.90;;;;;;5048134;28;20228;-56
2023/04/17 05:57:15;;;;;;;33.87;27.30;;;9.00;99.90;;;;;;5052037;28;20224;-55
2023/04/17 05:59:45;;;;;;;32.57;28.37;;;9.10;99.90;;;;;;5050856;28;20232;-56
2023/04/17 06:02:14;;;;;;;36.00;29.77;;;9.20;99.90;;;;;;5034510;28;20251;-56
2023/04/17 06:04:43;;;;;;;34.37;29.80;;;9.20;99.90;;;;;;5051835;28;20258;-56
2023/04/17 06:07:11;;;;;;;34.60;29.43;;;9.20;99.90;;;;;;5048531;28;20216;-56
2023/04/17 06:09:40;;;;;;;35.33;30.10;;;9.20;99.90;;;;;;5052296;28;20683;-56
2023/04/17 06:12:14;;;;;;;34.00;28.77;;;9.30;99.90;;;;;;5050956;28;20234;-56
2023/04/17 06:14:45;;;;;;;35.20;30.63;;;9.30;99.90;;;;;;5050674;28;20263;-55
2023/04/17 06:17:16;;;;;;;37.63;29.73;;;9.40;99.90;;;;;;5047985;28;20715;-55
2023/04/17 06:19:44;;;;;;;34.83;29.63;;;9.40;99.90;;;;;;5046958;28;20282;-58
2023/04/17 06:22:12;;;;;;;36.33;30.03;;;9.50;99.90;;;;;;5052192;28;20580;-57
2023/04/17 06:24:40;;;;;;;36.57;30.73;;;9.50;99.90;;;;;;5051750;28;20224;-57
2023/04/17 06:27:08;;;;;;;36.80;31.17;;;9.60;99.90;;;;;;5050354;28;20220;-58
2023/04/17 06:29:36;;;;;;;33.87;30.00;;;9.60;99.90;;;;;;5050398;28;20229;-57
2023/04/17 06:32:06;;;;;;;35.63;29.20;;;9.60;99.90;;;;;;5048026;28;20235;-57
2023/04/17 06:34:36;;;;;;;36.70;30.63;;;9.70;99.90;;;;;;5047577;28;20310;-57
2023/04/17 06:37:31;;;;;;;36.03;30.40;;;9.70;99.90;;;;;;5046004;28;20223;-57
2023/04/17 06:39:59;;;;;;;39.87;30.40;;;9.80;99.90;;;;;;5051696;28;20319;-57
2023/04/17 06:42:28;;;;;;;35.97;28.97;;;9.80;99.90;;;;;;5050262;28;20217;-57
2023/04/17 06:45:01;;;;;;;39.10;31.40;;;9.80;99.90;;;;;;5050396;28;20718;-57
2023/04/17 06:47:31;;;;;;;36.70;29.10;;;10.00;99.90;;;;;;5051653;28;20254;-57
2023/04/17 06:49:59;;;;;;;41.45;35.13;;;10.00;99.90;;;;;;5050195;28;21071;-63
2023/04/17 06:52:27;;;;;;;36.63;31.40;;;10.00;99.90;;;;;;5046588;28;20216;-63
2023/04/17 06:54:56;;;;;;;40.60;32.50;;;10.20;99.90;;;;;;5051996;28;20236;-64
2023/04/17 06:57:24;;;;;;;41.23;32.33;;;10.20;99.90;;;;;;5052175;28;20235;-63
2023/04/17 06:59:52;;;;;;;39.73;31.80;;;10.30;99.90;;;;;;5051369;28;20228;-63
2023/04/17 07:02:20;;;;;;;37.10;31.43;;;10.40;99.90;;;;;;5051229;28;20575;-63
2023/04/17 07:04:50;;;;;;;39.23;32.20;;;10.50;99.90;;;;;;5051366;28;20314;-63
2023/04/17 07:07:18;;;;;;;37.70;32.10;;;10.60;99.90;;;;;;5052165;28;20755;-64
2023/04/17 07:09:47;;;;;;;37.70;31.43;;;10.80;99.90;;;;;;5051648;28;20241;-63
2023/04/17 07:12:15;;;;;;;40.73;31.30;;;10.80;99.90;;;;;;5051723;28;20221;-63
2023/04/17 07:14:43;;;;;;;37.10;30.43;;;11.00;99.90;;;;;;5048849;28;20601;-64
2023/04/17 07:17:11;;;;;;;40.17;30.00;;;11.20;99.90;;;;;;5051546;28;20232;-64
2023/04/17 07:19:39;;;;;;;34.67;29.40;;;11.40;99.90;;;;;;5051234;28;20223;-63
2023/04/17 07:22:08;;;;;;;36.93;30.47;;;11.50;99.90;;;;;;5049331;28;20588;-64
2023/04/17 07:24:37;;;;;;;34.63;28.47;;;11.60;99.90;;;;;;5049903;28;20690;-64
2023/04/17 07:27:06;;;;;;;32.63;27.97;;;11.70;99.90;;;;;;5048421;28;20222;-64
2023/04/17 07:29:34;;;;;;;33.67;26.27;;;11.80;99.90;;;;;;5055447;28;20710;-64
2023/04/17 07:32:02;;;;;;;32.40;27.57;;;11.90;99.90;;;;;;5051888;28;20230;-64
2023/04/17 07:34:33;;;;;;;31.53;28.10;;;12.10;99.90;;;;;;5054991;28;20235;-64
2023/04/17 07:37:01;;;;;;;35.43;26.20;;;12.20;99.90;;;;;;5055048;28;20227;-65
2023/04/17 07:39:30;;;;;;;33.17;25.73;;;12.60;99.90;;;;;;5055088;28;20230;-64
2023/04/17 07:41:59;;;;;;;28.53;25.37;;;12.80;99.90;;;;;;5054747;28;20233;-64
2023/04/17 07:44:27;;;;;;;29.37;25.77;;;12.90;99.90;;;;;;5055054;28;20695;-64
2023/04/17 07:46:55;;;;;;;32.70;26.10;;;13.30;99.90;;;;;;5055223;28;20229;-64
2023/04/17 07:49:23;;;;;;;25.93;23.13;;;13.30;99.90;;;;;;5055400;28;20234;-64
2023/04/17 07:51:51;;;;;;;27.10;24.23;;;13.60;99.90;;;;;;5054887;28;20231;-64
2023/04/17 07:54:19;;;;;;;29.77;24.23;;;14.10;99.90;;;;;;5054955;28;20703;-64
2023/04/17 07:56:49;;;;;;;27.57;22.73;;;14.40;99.90;;;;;;5054599;28;20241;-64
2023/04/17 07:59:17;;;;;;;28.20;23.17;;;14.60;99.90;;;;;;5055162;28;20582;-65
2023/04/17 08:01:45;;;;;;;25.37;22.37;;;14.90;99.90;;;;;;5054327;28;20262;-64
2023/04/17 08:04:13;;;;;;;31.63;23.50;;;14.70;99.90;;;;;;5053468;28;20250;-64
2023/04/17 08:06:42;;;;;;;28.63;23.27;;;14.40;99.90;;;;;;5054310;28;20578;-65
2023/04/17 08:09:10;;;;;;;26.63;23.20;;;14.20;99.90;;;;;;5053878;28;20232;-65
2023/04/17 08:11:39;;;;;;;26.10;22.23;;;14.30;99.90;;;;;;5054632;28;20223;-65
2023/04/17 08:14:25;;;;;;;27.63;22.00;;;14.50;99.90;;;;;;5054254;28;20230;-65
2023/04/17 08:16:53;;;;;;;26.67;22.00;;;14.60;99.90;;;;;;5051321;28;20231;-65
2023/04/17 08:19:21;;;;;;;25.43;22.27;;;14.70;99.90;;;;;;5041046;28;21743;-64
2023/04/17 08:21:50;;;;;;;26.43;22.53;;;14.90;99.90;;;;;;5037427;28;20241;-64
2023/04/17 08:24:18;;;;;;;26.23;21.13;;;15.10;99.90;;;;;;5037105;28;20235;-63
2023/04/17 08:26:47;;;;;;;26.17;22.63;;;15.50;99.90;;;;;;5034995;28;20239;-62
2023/04/17 08:29:15;;;;;;;23.83;20.73;;;15.50;99.90;;;;;;5037380;28;20234;-65
2023/04/17 08:31:45;;;;;;;23.03;20.53;;;15.40;99.90;;;;;;5036319;28;20227;-65
2023/04/17 08:34:13;;;;;;;23.63;21.13;;;15.40;99.90;;;;;;5037289;28;20710;-64
2023/04/17 08:36:42;;;;;;;22.57;20.17;;;15.40;99.90;;;;;;5034916;28;20734;-64
2023/04/17 08:39:11;;;;;;;24.93;20.63;;;15.40;99.90;;;;;;5037422;28;20235;-65
2023/04/17 08:41:46;;;;;;;19.90;17.77;;;15.80;99.90;;;;;;5038750;28;20263;-65
2023/04/17 08:44:15;;;;;;;21.60;19.30;;;16.10;99.90;;;;;;5038640;28;20883;-65
2023/04/17 08:46:45;;;;;;;18.63;16.63;;;16.20;99.90;;;;;;5034767;28;20803;-65
2023/04/17 08:49:13;;;;;;;16.93;15.17;;;16.20;99.90;;;;;;5036436;28;20710;-65
2023/04/17 08:51:42;;;;;;;17.77;15.90;;;16.20;99.90;;;;;;5036101;28;20307;-65
2023/04/17 08:54:10;;;;;;;20.67;16.97;;;16.10;99.90;;;;;;5036833;28;20246;-61
2023/04/17 08:56:38;;;;;;;19.67;15.80;;;15.90;99.90;;;;;;5034565;28;20224;-65
2023/04/17 08:59:06;;;;;;;22.53;16.67;;;16.10;99.90;;;;;;5038718;28;21289;-61
2023/04/17 09:01:34;;;;;;;17.53;15.63;;;16.50;99.90;;;;;;5038196;28;20232;-63
2023/04/17 09:04:04;;;;;;;14.80;13.27;;;16.60;99.90;;;;;;5039073;28;20254;-63
2023/04/17 09:06:53;;;;;;;15.70;14.03;;;16.60;99.90;;;;;;5037745;28;20234;-63
2023/04/17 09:09:21;;;;;;;15.83;14.20;;;16.60;99.90;;;;;;5037131;28;20242;-65
2023/04/17 09:12:09;;;;;;;16.13;14.00;;;17.00;99.90;;;;;;5036308;28;20322;-65
2023/04/17 09:14:37;;;;;;;15.10;13.40;;;17.00;99.90;;;;;;5035986;28;20809;-65
2023/04/17 09:17:05;;;;;;;16.23;12.93;;;17.30;99.90;;;;;;5032468;28;20236;-65
2023/04/17 09:19:35;;;;;;;14.27;11.97;;;17.80;99.90;;;;;;5035903;28;20584;-65
2023/04/17 09:22:20;;;;;;;13.43;12.07;;;17.60;99.90;;;;;;5035894;28;20714;-65
2023/04/17 09:24:49;;;;;;;14.70;11.10;;;17.80;99.90;;;;;;5035489;28;20259;-62
2023/04/17 09:27:21;;;;;;;14.13;11.57;;;18.40;99.90;;;;;;5034889;28;20807;-59
2023/04/17 09:30:01;;;;;;;12.57;10.63;;;17.90;99.90;;;;;;5037104;28;20236;-63
2023/04/17 09:32:30;;;;;;;13.87;12.40;;;17.50;99.90;;;;;;5037571;28;21967;-63
2023/04/17 09:35:02;;;;;;;14.13;12.63;;;17.40;99.90;;;;;;5038824;28;20247;-64
2023/04/17 09:37:49;;;;;;;14.03;12.40;;;17.30;99.90;;;;;;5035707;28;20225;-60
2023/04/17 09:40:18;;;;;;;13.93;12.30;;;17.40;99.90;;;;;;5038264;28;20920;-65
2023/04/17 09:42:57;;;;;;;15.57;13.10;;;18.00;99.90;;;;;;5038092;28;20699;-65
2023/04/17 09:45:31;;;;;;;14.80;12.17;;;17.80;99.90;;;;;;5035275;28;20718;-61
2023/04/17 09:48:00;;;;;;;14.00;12.50;;;17.90;99.90;;;;;;5033694;28;20809;-62
2023/04/17 09:50:31;;;;;;;15.83;12.97;;;17.80;99.90;;;;;;5034908;28;20227;-64
2023/04/17 09:52:59;;;;;;;14.57;12.77;;;18.20;99.90;;;;;;5035309;28;20223;-64
2023/04/17 09:55:30;;;;;;;16.87;13.73;;;17.90;99.90;;;;;;5035686;28;21262;-63
2023/04/17 09:58:02;;;;;;;19.80;13.50;;;17.90;99.90;;;;;;5034386;28;20233;-63
2023/04/17 10:00:31;;;;;;;16.87;13.97;;;18.20;99.90;;;;;;5036083;28;20881;-62
2023/04/17 10:02:59;;;;;;;14.30;12.90;;;18.00;99.90;;;;;;5037566;28;20699;-64
2023/04/17 10:05:31;;;;;;;14.80;13.30;;;17.70;99.90;;;;;;5038408;28;20232;-62
2023/04/17 10:07:59;;;;;;;14.17;12.70;;;17.50;99.90;;;;;;5035758;28;20232;-64
2023/04/17 10:10:30;;;;;;;14.53;13.13;;;17.50;99.90;;;;;;5038050;28;20246;-62
2023/04/17 10:13:00;;;;;;;14.83;13.07;;;17.70;99.90;;;;;;5037617;28;20290;-61
2023/04/17 10:15:29;;;;;;;17.20;14.43;;;18.00;99.90;;;;;;5034988;28;20741;-64
2023/04/17 10:18:18;;;;;;;14.73;13.23;;;18.20;99.90;;;;;;5036194;28;20695;-61
2023/04/17 10:20:49;;;;;;;14.13;12.63;;;18.20;99.90;;;;;;5037067;28;20224;-60
2023/04/17 10:23:31;;;;;;;15.50;13.30;;;18.40;99.90;;;;;;5037523;28;20231;-63
2023/04/17 10:26:42;;;;;;;14.10;12.63;;;18.00;99.90;;;;;;5037586;28;20310;-64
2023/04/17 10:29:11;;;;;;;14.47;12.97;;;17.90;99.90;;;;;;5037316;28;20703;-60
2023/04/17 10:32:20;;;;;;;16.13;12.97;;;18.20;99.90;;;;;;5036824;28;20718;-64
2023/04/17 10:34:48;;;;;;;13.20;11.90;;;18.20;99.90;;;;;;5036858;28;20577;-61
2023/04/17 10:37:18;;;;;;;17.17;12.23;;;18.20;99.90;;;;;;5032982;28;20220;-61
2023/04/17 10:39:51;;;;;;;15.03;11.50;;;18.30;99.90;;;;;;5034408;28;20298;-60
2023/04/17 10:42:21;;;;;;;16.00;11.77;;;18.80;99.90;;;;;;5034603;28;20241;-62
2023/04/17 10:44:50;;;;;;;12.57;11.37;;;19.40;99.90;;;;;;5034037;28;20228;-65
2023/04/17 10:47:22;;;;;;;12.77;11.10;;;19.10;99.90;;;;;;5032965;28;20600;-58
2023/04/17 10:49:51;;;;;;;14.17;11.20;;;19.20;99.90;;;;;;5034768;28;20604;-63
2023/04/17 10:52:38;;;;;;;11.87;10.67;;;19.60;99.90;;;;;;5034537;28;20232;-63
2023/04/17 10:55:08;;;;;;;12.17;10.90;;;19.60;99.90;;;;;;5034982;28;20767;-65
2023/04/17 10:57:56;;;;;;;13.47;10.13;;;19.60;99.90;;;;;;5035918;28;20242;-63
2023/04/17 11:00:31;;;;;;;12.00;10.80;;;19.60;99.90;;;;;;5037318;28;20704;-65
2023/04/17 11:03:01;;;;;;;13.03;11.63;;;19.10;99.90;;;;;;5040053;28;20630;-61
2023/04/17 11:05:31;;;;;;;11.37;10.17;;;18.90;99.90;;;;;;5040746;28;20236;-65
2023/04/17 11:08:00;;;;;;;12.37;10.93;;;18.90;99.90;;;;;;5039681;28;20714;-65
2023/04/17 11:10:29;;;;;;;12.27;10.43;;;18.90;99.90;;;;;;5040808;28;20302;-62
2023/04/17 11:12:57;;;;;;;12.40;11.10;;;18.90;99.90;;;;;;5040836;28;20244;-65
2023/04/17 11:15:28;;;;;;;13.10;11.27;;;18.60;99.90;;;;;;5038973;28;20694;-60
2023/04/17 11:17:57;;;;;;;10.97;9.83;;;18.90;99.90;;;;;;5036774;28;20249;-65
2023/04/17 11:20:28;;;;;;;13.63;10.87;;;19.30;99.90;;;;;;5038560;28;20244;-61
2023/04/17 11:23:00;;;;;;;14.37;10.47;;;19.60;99.90;;;;;;5038755;28;20242;-64
2023/04/17 11:25:32;;;;;;;13.83;10.60;;;19.70;99.90;;;;;;5037846;28;20825;-60
2023/04/17 11:28:03;;;;;;;12.80;10.13;;;19.50;99.90;;;;;;5035530;28;20236;-61
2023/04/17 11:30:34;;;;;;;12.03;10.30;;;19.80;99.90;;;;;;5035067;28;20689;-63
2023/04/17 11:33:03;;;;;;;10.50;9.43;;;19.80;99.90;;;;;;5037688;28;20305;-61
2023/04/17 11:35:34;;;;;;;9.87;8.70;;;19.80;99.90;;;;;;5036947;28;20357;-60
2023/04/17 11:38:16;;;;;;;11.23;9.57;;;20.10;99.90;;;;;;5037289;28;20225;-62
2023/04/17 11:40:48;;;;;;;9.87;8.80;;;19.40;99.90;;;;;;5040460;28;20296;-64
2023/04/17 11:43:17;;;;;;;9.80;8.80;;;19.30;99.90;;;;;;5041244;28;20699;-65
2023/04/17 11:45:48;;;;;;;9.60;8.47;;;19.30;99.90;;;;;;5040370;28;20681;-65
2023/04/17 11:48:21;;;;;;;10.00;8.77;;;19.20;99.90;;;;;;5038442;28;20570;-64
2023/04/17 11:50:49;;;;;;;11.97;8.37;;;19.20;99.90;;;;;;5039714;28;20242;-65
2023/04/17 11:53:17;;;;;;;9.50;8.50;;;19.30;99.90;;;;;;5039746;28;20610;-64
2023/04/17 11:55:48;;;;;;;9.93;8.33;;;18.80;99.90;;;;;;5040392;28;20719;-65
2023/04/17 11:58:16;;;;;;;10.23;8.20;;;18.50;99.90;;;;;;5038596;28;20258;-64
2023/04/17 12:00:44;;;;;;;9.50;8.43;;;18.50;99.90;;;;;;5039885;28;20587;-63
2023/04/17 12:03:33;;;;;;;9.83;8.03;;;18.80;99.90;;;;;;5040001;28;20716;-64
2023/04/17 12:06:03;;;;;;;10.33;9.17;;;19.00;99.90;;;;;;5040468;28;20630;-63
2023/04/17 12:08:41;;;;;;;10.80;8.50;;;18.70;99.90;;;;;;5035069;28;20243;-61
2023/04/17 12:11:17;;;;;;;9.43;8.20;;;18.40;99.90;;;;;;5037519;28;20233;-64
2023/04/17 12:13:45;;;;;;;9.57;8.00;;;18.20;99.90;;;;;;5036690;28;20926;-65
2023/04/17 12:16:13;;;;;;;10.17;7.80;;;17.90;99.90;;;;;;5037225;28;20246;-59
2023/04/17 12:18:41;;;;;;;8.87;7.97;;;18.00;99.90;;;;;;5035283;28;20232;-63
2023/04/17 12:21:10;;;;;;;10.20;8.33;;;18.00;99.90;;;;;;5038000;28;20244;-62
2023/04/17 12:23:38;;;;;;;8.57;7.73;;;17.90;99.90;;;;;;5036699;28;20237;-60
2023/04/17 12:26:06;;;;;;;10.77;9.03;;;17.80;99.90;;;;;;5037625;28;20221;-64
2023/04/17 12:28:37;;;;;;;11.27;9.00;;;17.60;99.90;;;;;;5035910;28;20722;-63
2023/04/17 12:31:06;;;;;;;10.47;8.73;;;17.50;99.90;;;;;;5036929;28;20606;-63
2023/04/17 12:33:35;;;;;;;10.33;8.67;;;17.60;99.90;;;;;;5037129;28;20637;-65
2023/04/17 12:36:05;;;;;;;12.63;9.50;;;17.90;99.90;;;;;;5037235;28;20338;-60
2023/04/17 12:38:33;;;;;;;12.20;9.97;;;17.70;99.90;;;;;;5035051;28;20872;-63
2023/04/17 12:41:02;;;;;;;12.87;10.77;;;17.60;99.90;;;;;;5036945;28;20249;-63
2023/04/17 12:43:31;;;;;;;13.33;9.97;;;17.00;99.90;;;;;;5037550;28;20723;-64
2023/04/17 12:46:01;;;;;;;13.73;9.70;;;16.80;99.90;;;;;;5037150;28;20224;-64
2023/04/17 12:48:30;;;;;;;14.80;10.17;;;16.70;99.90;;;;;;5035304;28;20714;-64